AIC188 VABB-VIDP
Flight info
| Callsign | AIC188 |
|---|---|
| Flight time | 1h 38m |
| Altitude | 41000 |
| Route | ANOLI2A ISRIS Q1 UKASO UKASO6H |
| Aircraft | A359/H-SDE2E3GHIJ3J4J5LM1ORWXY/LB1D1 |
Departure
| Time | 2026-05-07 17:59 |
|---|---|
| Airport | Chhatrapati Shivaji Maharaj International Airport (VABB) |
Arrival
| Time | 2026-05-07 19:37 |
|---|---|
| Airport | Indira Gandhi International Airport (VIDP) |
| Time | Latitude | Longitude | Altitude | Speed | Heading |
|---|---|---|---|---|---|
| 2026-05-07 17:46 | 19.09670 | 72.87159 | 47 ft | 0 kts | 225° |
| 2026-05-07 17:48 | 19.09665 | 72.87154 | 47 ft | 4 kts | 225° |
| 2026-05-07 17:48 | 19.09645 | 72.87133 | 50 ft | 8 kts | 225° |
| 2026-05-07 17:48 | 19.09638 | 72.87125 | 50 ft | 9 kts | 225° |
| 2026-05-07 17:49 | 19.09577 | 72.87061 | 48 ft | 15 kts | 224° |
| 2026-05-07 17:49 | 19.09525 | 72.87004 | 49 ft | 14 kts | 228° |
| 2026-05-07 17:49 | 19.09451 | 72.86915 | 49 ft | 19 kts | 229° |
| 2026-05-07 17:49 | 19.09408 | 72.86873 | 49 ft | 2 kts | 202° |
| 2026-05-07 17:50 | 19.09378 | 72.86867 | 53 ft | 3 kts | 173° |
| 2026-05-07 17:50 | 19.09355 | 72.86889 | 53 ft | 8 kts | 136° |
| 2026-05-07 17:50 | 19.09297 | 72.86948 | 52 ft | 15 kts | 136° |
| 2026-05-07 17:50 | 19.09236 | 72.87038 | 52 ft | 16 kts | 103° |
| 2026-05-07 17:51 | 19.09235 | 72.87177 | 52 ft | 19 kts | 88° |
| 2026-05-07 17:51 | 19.09226 | 72.87262 | 49 ft | 11 kts | 131° |
| 2026-05-07 17:51 | 19.09165 | 72.87265 | 49 ft | 12 kts | 186° |
| 2026-05-07 17:51 | 19.09074 | 72.87269 | 51 ft | 13 kts | 162° |
| 2026-05-07 17:52 | 19.09047 | 72.87331 | 49 ft | 10 kts | 84° |
| 2026-05-07 17:52 | 19.09052 | 72.87429 | 51 ft | 17 kts | 89° |
| 2026-05-07 17:52 | 19.09053 | 72.87575 | 50 ft | 23 kts | 90° |
| 2026-05-07 17:52 | 19.09056 | 72.87764 | 49 ft | 28 kts | 89° |
| 2026-05-07 17:53 | 19.09059 | 72.87980 | 52 ft | 16 kts | 89° |
| 2026-05-07 17:53 | 19.09059 | 72.87994 | 55 ft | 2 kts | 89° |
| 2026-05-07 17:53 | 19.09056 | 72.88031 | 55 ft | 4 kts | 112° |
| 2026-05-07 17:53 | 19.09021 | 72.88054 | 52 ft | 6 kts | 167° |
| 2026-05-07 17:54 | 19.08972 | 72.88052 | 48 ft | 10 kts | 181° |
| 2026-05-07 17:54 | 19.08896 | 72.88046 | 48 ft | 6 kts | 204° |
| 2026-05-07 17:54 | 19.08886 | 72.88020 | 46 ft | 3 kts | 276° |
| 2026-05-07 17:54 | 19.08888 | 72.87985 | 51 ft | 6 kts | 269° |
| 2026-05-07 17:55 | 19.08888 | 72.87955 | 53 ft | 0 kts | 269° |
| 2026-05-07 17:58 | 19.08886 | 72.87869 | 50 ft | 40 kts | 269° |
| 2026-05-07 17:59 | 19.08875 | 72.87285 | 53 ft | 116 kts | 269° |
| 2026-05-07 17:59 | 19.08862 | 72.86192 | 64 ft | 178 kts | 269° |
| 2026-05-07 17:59 | 19.08841 | 72.84773 | 494 ft | 207 kts | 270° |
| 2026-05-07 17:59 | 19.08819 | 72.83142 | 1123 ft | 235 kts | 269° |
| 2026-05-07 18:00 | 19.08799 | 72.81323 | 1747 ft | 258 kts | 269° |
| 2026-05-07 18:00 | 19.08790 | 72.79358 | 2486 ft | 276 kts | 269° |
| 2026-05-07 18:00 | 19.08800 | 72.77279 | 3274 ft | 288 kts | 270° |
| 2026-05-07 18:00 | 19.09215 | 72.75256 | 4501 ft | 280 kts | 297° |
| 2026-05-07 18:01 | 19.10540 | 72.73814 | 5827 ft | 275 kts | 329° |
| 2026-05-07 18:01 | 19.12365 | 72.73349 | 6939 ft | 273 kts | 0° |
| 2026-05-07 18:01 | 19.14222 | 72.73685 | 7617 ft | 278 kts | 10° |
| 2026-05-07 18:01 | 19.16131 | 72.74050 | 7943 ft | 279 kts | 5° |
| 2026-05-07 18:02 | 19.19995 | 72.74291 | 8429 ft | 280 kts | 358° |
| 2026-05-07 18:02 | 19.21963 | 72.74272 | 9192 ft | 284 kts | 356° |
| 2026-05-07 18:02 | 19.23926 | 72.74215 | 9753 ft | 285 kts | 355° |
| 2026-05-07 18:03 | 19.25929 | 72.74132 | 9522 ft | 292 kts | 357° |
| 2026-05-07 18:03 | 19.27962 | 72.74035 | 9786 ft | 293 kts | 357° |
| 2026-05-07 18:03 | 19.29994 | 72.73986 | 9818 ft | 292 kts | 2° |
| 2026-05-07 18:03 | 19.30431 | 72.74013 | 9829 ft | 292 kts | 4° |
| 2026-05-07 18:04 | 19.31573 | 72.74142 | 9887 ft | 295 kts | 7° |
| 2026-05-07 18:04 | 19.33653 | 72.74456 | 10092 ft | 311 kts | 8° |
| 2026-05-07 18:04 | 19.35870 | 72.74803 | 10425 ft | 334 kts | 8° |
| 2026-05-07 18:04 | 19.38219 | 72.75169 | 10945 ft | 348 kts | 8° |
| 2026-05-07 18:05 | 19.40647 | 72.75545 | 11624 ft | 355 kts | 8° |
| 2026-05-07 18:05 | 19.43114 | 72.75926 | 12380 ft | 361 kts | 9° |
| 2026-05-07 18:05 | 19.45616 | 72.76311 | 13147 ft | 366 kts | 9° |
| 2026-05-07 18:05 | 19.48121 | 72.76697 | 13868 ft | 370 kts | 9° |
| 2026-05-07 18:06 | 19.50722 | 72.77097 | 14551 ft | 375 kts | 9° |
| 2026-05-07 18:06 | 19.53284 | 72.77491 | 15206 ft | 379 kts | 9° |
| 2026-05-07 18:06 | 19.55907 | 72.77895 | 15861 ft | 383 kts | 9° |
| 2026-05-07 18:06 | 19.58567 | 72.78304 | 16503 ft | 388 kts | 8° |
| 2026-05-07 18:07 | 19.61249 | 72.78717 | 17154 ft | 392 kts | 8° |
| 2026-05-07 18:07 | 19.63957 | 72.79134 | 17830 ft | 394 kts | 8° |
| 2026-05-07 18:07 | 19.66677 | 72.79552 | 18499 ft | 396 kts | 8° |
| 2026-05-07 18:07 | 19.69407 | 72.79973 | 19173 ft | 396 kts | 8° |
| 2026-05-07 18:08 | 19.72137 | 72.80394 | 19874 ft | 396 kts | 7° |
| 2026-05-07 18:08 | 19.74866 | 72.80815 | 20541 ft | 396 kts | 7° |
| 2026-05-07 18:08 | 19.77594 | 72.81236 | 21192 ft | 397 kts | 7° |
| 2026-05-07 18:08 | 19.80335 | 72.81658 | 21844 ft | 398 kts | 7° |
| 2026-05-07 18:09 | 19.83088 | 72.82083 | 22468 ft | 399 kts | 6° |
| 2026-05-07 18:09 | 19.85833 | 72.82507 | 23065 ft | 401 kts | 6° |
| 2026-05-07 18:09 | 19.88606 | 72.82935 | 23597 ft | 402 kts | 6° |
| 2026-05-07 18:09 | 19.91391 | 72.83366 | 23981 ft | 407 kts | 6° |
| 2026-05-07 18:10 | 19.94206 | 72.83800 | 24372 ft | 410 kts | 6° |
| 2026-05-07 18:10 | 19.97035 | 72.84237 | 24825 ft | 413 kts | 6° |
| 2026-05-07 18:10 | 19.99890 | 72.84679 | 25321 ft | 415 kts | 6° |
| 2026-05-07 18:10 | 20.02760 | 72.85123 | 25786 ft | 419 kts | 6° |
| 2026-05-07 18:11 | 20.05629 | 72.85567 | 26276 ft | 423 kts | 6° |
| 2026-05-07 18:11 | 20.07598 | 72.85872 | 26612 ft | 425 kts | 5° |
| 2026-05-07 18:11 | 20.11507 | 72.86437 | 27272 ft | 430 kts | 4° |
| 2026-05-07 18:11 | 20.14487 | 72.86805 | 27757 ft | 433 kts | 4° |
| 2026-05-07 18:12 | 20.17499 | 72.87176 | 28243 ft | 437 kts | 4° |
| 2026-05-07 18:12 | 20.20531 | 72.87554 | 28728 ft | 441 kts | 4° |
| 2026-05-07 18:12 | 20.23604 | 72.87941 | 29196 ft | 445 kts | 4° |
| 2026-05-07 18:12 | 20.26691 | 72.88333 | 29661 ft | 449 kts | 4° |
| 2026-05-07 18:13 | 20.29803 | 72.88729 | 30115 ft | 451 kts | 4° |
| 2026-05-07 18:13 | 20.32931 | 72.89129 | 30523 ft | 454 kts | 4° |
| 2026-05-07 18:13 | 20.36087 | 72.89532 | 30858 ft | 459 kts | 4° |
| 2026-05-07 18:13 | 20.39271 | 72.89939 | 31203 ft | 463 kts | 4° |
| 2026-05-07 18:14 | 20.42485 | 72.90350 | 31546 ft | 467 kts | 4° |
| 2026-05-07 18:14 | 20.45705 | 72.90763 | 31876 ft | 471 kts | 4° |
| 2026-05-07 18:14 | 20.48949 | 72.91179 | 32210 ft | 474 kts | 4° |
| 2026-05-07 18:14 | 20.52225 | 72.91599 | 32537 ft | 477 kts | 4° |
| 2026-05-07 18:15 | 20.55547 | 72.92025 | 32851 ft | 481 kts | 4° |
| 2026-05-07 18:15 | 20.58881 | 72.92453 | 33158 ft | 484 kts | 4° |
| 2026-05-07 18:15 | 20.62242 | 72.92885 | 33465 ft | 487 kts | 3° |
| 2026-05-07 18:15 | 20.65612 | 72.93318 | 33758 ft | 490 kts | 3° |
| 2026-05-07 18:16 | 20.69012 | 72.93755 | 34001 ft | 493 kts | 3° |
| 2026-05-07 18:16 | 20.72429 | 72.94194 | 34246 ft | 496 kts | 3° |
| 2026-05-07 18:16 | 20.75866 | 72.94637 | 34520 ft | 497 kts | 3° |
| 2026-05-07 18:16 | 20.79303 | 72.94992 | 34888 ft | 495 kts | 0° |
| 2026-05-07 18:17 | 20.82738 | 72.95151 | 35260 ft | 493 kts | 358° |
| 2026-05-07 18:17 | 20.86169 | 72.95218 | 35611 ft | 492 kts | 357° |
| 2026-05-07 18:17 | 20.89600 | 72.95266 | 35940 ft | 492 kts | 358° |
| 2026-05-07 18:17 | 20.93016 | 72.95326 | 36256 ft | 492 kts | 358° |
| 2026-05-07 18:18 | 20.96444 | 72.95410 | 36619 ft | 491 kts | 358° |
| 2026-05-07 18:18 | 20.99819 | 72.95512 | 36965 ft | 491 kts | 358° |
| 2026-05-07 18:18 | 21.03228 | 72.95628 | 37275 ft | 491 kts | 358° |
| 2026-05-07 18:18 | 21.06646 | 72.95753 | 37585 ft | 490 kts | 358° |
| 2026-05-07 18:19 | 21.10052 | 72.95880 | 37907 ft | 490 kts | 359° |
| 2026-05-07 18:19 | 21.13462 | 72.96008 | 38209 ft | 490 kts | 359° |
| 2026-05-07 18:19 | 21.16871 | 72.96289 | 38491 ft | 493 kts | 5° |
| 2026-05-07 18:19 | 21.20235 | 72.97042 | 38733 ft | 496 kts | 13° |
| 2026-05-07 18:20 | 21.23534 | 72.98147 | 38989 ft | 497 kts | 15° |
| 2026-05-07 18:20 | 21.26802 | 72.99348 | 39250 ft | 497 kts | 16° |
| 2026-05-07 18:20 | 21.30053 | 73.00597 | 39505 ft | 496 kts | 17° |
| 2026-05-07 18:20 | 21.33297 | 73.01867 | 39745 ft | 496 kts | 17° |
| 2026-05-07 18:21 | 21.36542 | 73.03142 | 39984 ft | 495 kts | 17° |
| 2026-05-07 18:21 | 21.39775 | 73.04408 | 40213 ft | 494 kts | 17° |
| 2026-05-07 18:21 | 21.42997 | 73.05663 | 40442 ft | 494 kts | 17° |
| 2026-05-07 18:21 | 21.46235 | 73.06920 | 40666 ft | 493 kts | 17° |
| 2026-05-07 18:22 | 21.49465 | 73.08170 | 40810 ft | 494 kts | 17° |
| 2026-05-07 18:22 | 21.55923 | 73.10667 | 40827 ft | 492 kts | 17° |
| 2026-05-07 18:23 | 21.62360 | 73.13158 | 40829 ft | 492 kts | 17° |
| 2026-05-07 18:23 | 21.68762 | 73.15638 | 40832 ft | 492 kts | 17° |
| 2026-05-07 18:24 | 21.75213 | 73.18140 | 40812 ft | 492 kts | 17° |
| 2026-05-07 18:24 | 21.81637 | 73.20634 | 40823 ft | 492 kts | 17° |
| 2026-05-07 18:25 | 21.88097 | 73.23145 | 40812 ft | 492 kts | 17° |
| 2026-05-07 18:25 | 21.94540 | 73.25652 | 40812 ft | 492 kts | 16° |
| 2026-05-07 18:26 | 22.00978 | 73.28159 | 40814 ft | 492 kts | 16° |
| 2026-05-07 18:26 | 22.07412 | 73.30667 | 40807 ft | 492 kts | 16° |
| 2026-05-07 18:27 | 22.13844 | 73.33176 | 40803 ft | 492 kts | 16° |
| 2026-05-07 18:27 | 22.20280 | 73.35689 | 40801 ft | 492 kts | 16° |
| 2026-05-07 18:28 | 22.26665 | 73.38186 | 40805 ft | 491 kts | 16° |
| 2026-05-07 18:28 | 22.33091 | 73.40700 | 40801 ft | 491 kts | 16° |
| 2026-05-07 18:29 | 22.39505 | 73.43212 | 40801 ft | 491 kts | 16° |
| 2026-05-07 18:29 | 22.45927 | 73.45729 | 40799 ft | 491 kts | 16° |
| 2026-05-07 18:30 | 22.52349 | 73.48249 | 40799 ft | 491 kts | 16° |
| 2026-05-07 18:30 | 22.58775 | 73.50774 | 40802 ft | 490 kts | 15° |
| 2026-05-07 18:31 | 22.65182 | 73.53294 | 40802 ft | 489 kts | 15° |
| 2026-05-07 18:31 | 22.71580 | 73.55812 | 40802 ft | 489 kts | 15° |
| 2026-05-07 18:32 | 22.77942 | 73.58318 | 40799 ft | 489 kts | 16° |
| 2026-05-07 18:32 | 22.84382 | 73.60860 | 40799 ft | 489 kts | 16° |
| 2026-05-07 18:33 | 22.90776 | 73.63384 | 40804 ft | 489 kts | 15° |
| 2026-05-07 18:33 | 22.97133 | 73.65895 | 40804 ft | 489 kts | 15° |
| 2026-05-07 18:34 | 23.03527 | 73.68424 | 40802 ft | 489 kts | 15° |
| 2026-05-07 18:34 | 23.09912 | 73.70952 | 40800 ft | 488 kts | 15° |
| 2026-05-07 18:35 | 23.16303 | 73.73484 | 40800 ft | 488 kts | 15° |
| 2026-05-07 18:35 | 23.22689 | 73.76018 | 40810 ft | 489 kts | 15° |
| 2026-05-07 18:36 | 23.27988 | 73.78123 | 40796 ft | 488 kts | 15° |
| 2026-05-07 18:36 | 23.34363 | 73.80657 | 40803 ft | 488 kts | 15° |
| 2026-05-07 18:37 | 23.40738 | 73.83194 | 40795 ft | 488 kts | 15° |
| 2026-05-07 18:37 | 23.48152 | 73.86147 | 40796 ft | 488 kts | 15° |
| 2026-05-07 18:38 | 23.54520 | 73.88687 | 40809 ft | 488 kts | 15° |
| 2026-05-07 18:38 | 23.59863 | 73.90820 | 40796 ft | 487 kts | 15° |
| 2026-05-07 18:39 | 23.66187 | 73.93347 | 40803 ft | 487 kts | 15° |
| 2026-05-07 18:39 | 23.72558 | 73.95894 | 40796 ft | 487 kts | 15° |
| 2026-05-07 18:40 | 23.78928 | 73.98445 | 40794 ft | 487 kts | 15° |
| 2026-05-07 18:40 | 23.85295 | 74.00997 | 40806 ft | 487 kts | 14° |
| 2026-05-07 18:41 | 23.91659 | 74.03551 | 40797 ft | 487 kts | 14° |
| 2026-05-07 18:41 | 23.98027 | 74.06109 | 40800 ft | 487 kts | 14° |
| 2026-05-07 18:42 | 24.04393 | 74.08669 | 40806 ft | 487 kts | 14° |
| 2026-05-07 18:42 | 24.10756 | 74.11223 | 40813 ft | 487 kts | 14° |
| 2026-05-07 18:43 | 24.17084 | 74.13761 | 40811 ft | 487 kts | 14° |
| 2026-05-07 18:43 | 24.23448 | 74.16321 | 40813 ft | 487 kts | 14° |
| 2026-05-07 18:44 | 24.29805 | 74.18889 | 40812 ft | 487 kts | 14° |
| 2026-05-07 18:44 | 24.36167 | 74.21458 | 40812 ft | 487 kts | 14° |
| 2026-05-07 18:45 | 24.42536 | 74.24033 | 40817 ft | 487 kts | 14° |
| 2026-05-07 18:45 | 24.48889 | 74.26606 | 40821 ft | 487 kts | 14° |
| 2026-05-07 18:46 | 24.55258 | 74.29188 | 40820 ft | 487 kts | 14° |
| 2026-05-07 18:46 | 24.61618 | 74.31770 | 40815 ft | 487 kts | 14° |
| 2026-05-07 18:47 | 24.67977 | 74.34354 | 40816 ft | 487 kts | 14° |
| 2026-05-07 18:47 | 24.74341 | 74.36942 | 40814 ft | 487 kts | 14° |
| 2026-05-07 18:48 | 24.80656 | 74.39514 | 40800 ft | 487 kts | 14° |
| 2026-05-07 18:48 | 24.87013 | 74.42105 | 40814 ft | 487 kts | 14° |
| 2026-05-07 18:49 | 24.93373 | 74.44700 | 40807 ft | 487 kts | 14° |
| 2026-05-07 18:49 | 24.99717 | 74.47292 | 40805 ft | 487 kts | 14° |
| 2026-05-07 18:50 | 25.06079 | 74.49894 | 40802 ft | 487 kts | 14° |
| 2026-05-07 18:50 | 25.12433 | 74.52496 | 40802 ft | 487 kts | 14° |
| 2026-05-07 18:51 | 25.18767 | 74.55097 | 40806 ft | 486 kts | 14° |
| 2026-05-07 18:51 | 25.25119 | 74.57714 | 40802 ft | 486 kts | 14° |
| 2026-05-07 18:52 | 25.31450 | 74.60324 | 40799 ft | 486 kts | 14° |
| 2026-05-07 18:52 | 25.37781 | 74.62937 | 40796 ft | 486 kts | 14° |
| 2026-05-07 18:53 | 25.44111 | 74.65553 | 40800 ft | 486 kts | 14° |
| 2026-05-07 18:53 | 25.50436 | 74.68170 | 40799 ft | 485 kts | 14° |
| 2026-05-07 18:54 | 25.56756 | 74.70787 | 40804 ft | 485 kts | 14° |
| 2026-05-07 18:54 | 25.63072 | 74.73405 | 40800 ft | 485 kts | 14° |
| 2026-05-07 18:55 | 25.69393 | 74.76028 | 40800 ft | 485 kts | 14° |
| 2026-05-07 18:55 | 25.75717 | 74.78655 | 40817 ft | 485 kts | 14° |
| 2026-05-07 18:56 | 25.81997 | 74.81268 | 40807 ft | 485 kts | 14° |
| 2026-05-07 18:56 | 25.88321 | 74.83901 | 40809 ft | 486 kts | 14° |
| 2026-05-07 18:57 | 25.94654 | 74.86542 | 40805 ft | 486 kts | 14° |
| 2026-05-07 18:57 | 26.00981 | 74.89183 | 40806 ft | 486 kts | 14° |
| 2026-05-07 18:58 | 26.07316 | 74.91830 | 40836 ft | 486 kts | 14° |
| 2026-05-07 18:58 | 26.13637 | 74.94476 | 40812 ft | 485 kts | 14° |
| 2026-05-07 18:59 | 26.19952 | 74.97121 | 40818 ft | 485 kts | 14° |
| 2026-05-07 18:59 | 26.26273 | 74.99761 | 40818 ft | 485 kts | 14° |
| 2026-05-07 19:00 | 26.32586 | 75.02398 | 40848 ft | 485 kts | 14° |
| 2026-05-07 19:00 | 26.38911 | 75.05045 | 40845 ft | 485 kts | 13° |
| 2026-05-07 19:01 | 26.45173 | 75.07673 | 40834 ft | 483 kts | 14° |
| 2026-05-07 19:01 | 26.51466 | 75.10312 | 40842 ft | 483 kts | 13° |
| 2026-05-07 19:02 | 26.57752 | 75.12940 | 40838 ft | 483 kts | 13° |
| 2026-05-07 19:02 | 26.64042 | 75.15573 | 40838 ft | 483 kts | 13° |
| 2026-05-07 19:03 | 26.70335 | 75.18216 | 40856 ft | 483 kts | 13° |
| 2026-05-07 19:03 | 26.76627 | 75.20863 | 40842 ft | 483 kts | 13° |
| 2026-05-07 19:04 | 26.82925 | 75.23509 | 40848 ft | 483 kts | 13° |
| 2026-05-07 19:04 | 26.89221 | 75.26159 | 40848 ft | 483 kts | 13° |
| 2026-05-07 19:05 | 26.95515 | 75.28813 | 40852 ft | 483 kts | 13° |
| 2026-05-07 19:05 | 27.01815 | 75.31472 | 40859 ft | 483 kts | 13° |
| 2026-05-07 19:06 | 27.08123 | 75.34140 | 40853 ft | 484 kts | 13° |
| 2026-05-07 19:06 | 27.17578 | 75.38163 | 40861 ft | 486 kts | 15° |
| 2026-05-07 19:07 | 27.23445 | 75.42036 | 40856 ft | 504 kts | 32° |
| 2026-05-07 19:07 | 27.28599 | 75.47461 | 40856 ft | 510 kts | 37° |
| 2026-05-07 19:08 | 27.33657 | 75.53047 | 40870 ft | 510 kts | 37° |
| 2026-05-07 19:08 | 27.38712 | 75.58634 | 40864 ft | 509 kts | 37° |
| 2026-05-07 19:09 | 27.43771 | 75.64230 | 40546 ft | 508 kts | 37° |
| 2026-05-07 19:09 | 27.46285 | 75.67014 | 39913 ft | 507 kts | 37° |
| 2026-05-07 19:09 | 27.48807 | 75.69806 | 39171 ft | 510 kts | 37° |
| 2026-05-07 19:10 | 27.51339 | 75.72610 | 38468 ft | 511 kts | 37° |
| 2026-05-07 19:10 | 27.53876 | 75.75423 | 37639 ft | 512 kts | 37° |
| 2026-05-07 19:10 | 27.56414 | 75.78239 | 36789 ft | 513 kts | 37° |
| 2026-05-07 19:10 | 27.58957 | 75.81062 | 36005 ft | 514 kts | 37° |
| 2026-05-07 19:11 | 27.61490 | 75.83845 | 35186 ft | 512 kts | 36° |
| 2026-05-07 19:11 | 27.64357 | 75.86221 | 34344 ft | 499 kts | 22° |
| 2026-05-07 19:11 | 27.67475 | 75.87689 | 33480 ft | 489 kts | 12° |
| 2026-05-07 19:11 | 27.70724 | 75.88811 | 32500 ft | 489 kts | 11° |
| 2026-05-07 19:12 | 27.73999 | 75.89890 | 31508 ft | 490 kts | 11° |
| 2026-05-07 19:12 | 27.77265 | 75.90975 | 30810 ft | 486 kts | 12° |
| 2026-05-07 19:12 | 27.80490 | 75.92054 | 30205 ft | 480 kts | 13° |
| 2026-05-07 19:12 | 27.83621 | 75.93110 | 29553 ft | 458 kts | 13° |
| 2026-05-07 19:13 | 27.86597 | 75.94118 | 28944 ft | 436 kts | 13° |
| 2026-05-07 19:13 | 27.89464 | 75.95086 | 28415 ft | 429 kts | 13° |
| 2026-05-07 19:13 | 27.92330 | 75.96049 | 27854 ft | 430 kts | 13° |
| 2026-05-07 19:13 | 27.95187 | 75.97011 | 27304 ft | 427 kts | 13° |
| 2026-05-07 19:14 | 27.98004 | 75.97963 | 26746 ft | 415 kts | 13° |
| 2026-05-07 19:14 | 28.00743 | 75.98891 | 26269 ft | 408 kts | 13° |
| 2026-05-07 19:14 | 28.03371 | 75.99785 | 26116 ft | 381 kts | 13° |
| 2026-05-07 19:14 | 28.05818 | 76.00620 | 25980 ft | 354 kts | 12° |
| 2026-05-07 19:15 | 28.08100 | 76.01397 | 25839 ft | 331 kts | 12° |
| 2026-05-07 19:15 | 28.10241 | 76.02124 | 25712 ft | 316 kts | 12° |
| 2026-05-07 19:15 | 28.10926 | 76.02355 | 25683 ft | 318 kts | 12° |
| 2026-05-07 19:16 | 28.16772 | 76.04324 | 25308 ft | 321 kts | 12° |
| 2026-05-07 19:16 | 28.18186 | 76.04803 | 25202 ft | 320 kts | 12° |
| 2026-05-07 19:16 | 28.20305 | 76.05585 | 25005 ft | 322 kts | 17° |
| 2026-05-07 19:16 | 28.22253 | 76.06848 | 24590 ft | 327 kts | 33° |
| 2026-05-07 19:17 | 28.23791 | 76.08785 | 24182 ft | 336 kts | 51° |
| 2026-05-07 19:17 | 28.24930 | 76.11118 | 23801 ft | 339 kts | 56° |
| 2026-05-07 19:17 | 28.25975 | 76.13517 | 23401 ft | 338 kts | 57° |
| 2026-05-07 19:17 | 28.27013 | 76.15908 | 22964 ft | 338 kts | 57° |
| 2026-05-07 19:18 | 28.28059 | 76.18299 | 22556 ft | 338 kts | 57° |
| 2026-05-07 19:18 | 28.29104 | 76.20678 | 22150 ft | 336 kts | 57° |
| 2026-05-07 19:18 | 28.30151 | 76.23054 | 21768 ft | 335 kts | 57° |
| 2026-05-07 19:18 | 28.31192 | 76.25415 | 21388 ft | 333 kts | 57° |
| 2026-05-07 19:19 | 28.32227 | 76.27759 | 20987 ft | 332 kts | 57° |
| 2026-05-07 19:19 | 28.33258 | 76.30096 | 20434 ft | 330 kts | 57° |
| 2026-05-07 19:19 | 28.34298 | 76.32445 | 19394 ft | 337 kts | 57° |
| 2026-05-07 19:19 | 28.35363 | 76.34849 | 18438 ft | 342 kts | 58° |
| 2026-05-07 19:20 | 28.36429 | 76.37268 | 17575 ft | 342 kts | 58° |
| 2026-05-07 19:20 | 28.37475 | 76.39646 | 16712 ft | 340 kts | 58° |
| 2026-05-07 19:20 | 28.38528 | 76.42041 | 15873 ft | 338 kts | 58° |
| 2026-05-07 19:20 | 28.39577 | 76.44425 | 15065 ft | 336 kts | 58° |
| 2026-05-07 19:21 | 28.40615 | 76.46787 | 14281 ft | 333 kts | 58° |
| 2026-05-07 19:21 | 28.41650 | 76.49140 | 13494 ft | 331 kts | 58° |
| 2026-05-07 19:21 | 28.42674 | 76.51471 | 12674 ft | 329 kts | 58° |
| 2026-05-07 19:21 | 28.43693 | 76.53791 | 11882 ft | 326 kts | 58° |
| 2026-05-07 19:22 | 28.44697 | 76.56081 | 11158 ft | 321 kts | 59° |
| 2026-05-07 19:22 | 28.45687 | 76.58338 | 10466 ft | 316 kts | 59° |
| 2026-05-07 19:22 | 28.46661 | 76.60559 | 9767 ft | 312 kts | 59° |
| 2026-05-07 19:22 | 28.47624 | 76.62756 | 9020 ft | 307 kts | 59° |
| 2026-05-07 19:23 | 28.48566 | 76.64907 | 8336 ft | 301 kts | 60° |
| 2026-05-07 19:23 | 28.49489 | 76.67014 | 7663 ft | 295 kts | 60° |
| 2026-05-07 19:23 | 28.50395 | 76.69086 | 6997 ft | 289 kts | 60° |
| 2026-05-07 19:23 | 28.51249 | 76.71069 | 6671 ft | 278 kts | 63° |
| 2026-05-07 19:24 | 28.51759 | 76.73157 | 6468 ft | 273 kts | 83° |
| 2026-05-07 19:24 | 28.51582 | 76.75284 | 6183 ft | 270 kts | 100° |
| 2026-05-07 19:24 | 28.51150 | 76.77353 | 5863 ft | 267 kts | 103° |
| 2026-05-07 19:24 | 28.50698 | 76.79387 | 5522 ft | 264 kts | 103° |
| 2026-05-07 19:25 | 28.50257 | 76.81393 | 5240 ft | 259 kts | 103° |
| 2026-05-07 19:25 | 28.49830 | 76.83369 | 4925 ft | 256 kts | 104° |
| 2026-05-07 19:25 | 28.49413 | 76.85313 | 4647 ft | 251 kts | 105° |
| 2026-05-07 19:25 | 28.49003 | 76.87227 | 4344 ft | 247 kts | 104° |
| 2026-05-07 19:26 | 28.48595 | 76.89125 | 3961 ft | 246 kts | 105° |
| 2026-05-07 19:26 | 28.48191 | 76.91010 | 3656 ft | 243 kts | 105° |
| 2026-05-07 19:26 | 28.47794 | 76.92865 | 3314 ft | 241 kts | 105° |
| 2026-05-07 19:26 | 28.47402 | 76.94705 | 3098 ft | 238 kts | 105° |
| 2026-05-07 19:27 | 28.47010 | 76.96530 | 3062 ft | 238 kts | 106° |
| 2026-05-07 19:27 | 28.46619 | 76.98356 | 3062 ft | 238 kts | 106° |
| 2026-05-07 19:27 | 28.46226 | 77.00183 | 3059 ft | 238 kts | 106° |
| 2026-05-07 19:27 | 28.45831 | 77.02012 | 3062 ft | 238 kts | 105° |
| 2026-05-07 19:28 | 28.45438 | 77.03836 | 3061 ft | 237 kts | 106° |
| 2026-05-07 19:28 | 28.45051 | 77.05642 | 3051 ft | 228 kts | 106° |
| 2026-05-07 19:28 | 28.44688 | 77.07339 | 3051 ft | 217 kts | 106° |
| 2026-05-07 19:28 | 28.44333 | 77.09001 | 3060 ft | 216 kts | 106° |
| 2026-05-07 19:29 | 28.43980 | 77.10637 | 3057 ft | 216 kts | 105° |
| 2026-05-07 19:29 | 28.43622 | 77.12294 | 3061 ft | 216 kts | 106° |
| 2026-05-07 19:29 | 28.43264 | 77.13952 | 3059 ft | 216 kts | 106° |
| 2026-05-07 19:29 | 28.42905 | 77.15608 | 3059 ft | 216 kts | 105° |
| 2026-05-07 19:30 | 28.42547 | 77.17266 | 3060 ft | 216 kts | 106° |
| 2026-05-07 19:30 | 28.42190 | 77.18922 | 3060 ft | 215 kts | 106° |
| 2026-05-07 19:30 | 28.41834 | 77.20573 | 3079 ft | 216 kts | 106° |
| 2026-05-07 19:30 | 28.41475 | 77.22230 | 3079 ft | 215 kts | 106° |
| 2026-05-07 19:31 | 28.41117 | 77.23875 | 3071 ft | 214 kts | 105° |
| 2026-05-07 19:31 | 28.40788 | 77.25476 | 3064 ft | 202 kts | 102° |
| 2026-05-07 19:31 | 28.40825 | 77.27043 | 3070 ft | 201 kts | 76° |
| 2026-05-07 19:31 | 28.41579 | 77.28367 | 3071 ft | 204 kts | 41° |
| 2026-05-07 19:32 | 28.42870 | 77.29050 | 3079 ft | 207 kts | 16° |
| 2026-05-07 19:32 | 28.44282 | 77.29400 | 3074 ft | 209 kts | 13° |
| 2026-05-07 19:32 | 28.45706 | 77.29719 | 3072 ft | 209 kts | 13° |
| 2026-05-07 19:32 | 28.47124 | 77.30047 | 3073 ft | 209 kts | 13° |
| 2026-05-07 19:33 | 28.48582 | 77.30150 | 3059 ft | 212 kts | 348° |
| 2026-05-07 19:33 | 28.49804 | 77.29271 | 3085 ft | 210 kts | 309° |
| 2026-05-07 19:33 | 28.50552 | 77.27863 | 3073 ft | 210 kts | 287° |
| 2026-05-07 19:33 | 28.50850 | 77.26246 | 3074 ft | 207 kts | 277° |
| 2026-05-07 19:34 | 28.51117 | 77.24708 | 3077 ft | 190 kts | 282° |
| 2026-05-07 19:34 | 28.51441 | 77.23313 | 3051 ft | 175 kts | 283° |
| 2026-05-07 19:34 | 28.51736 | 77.21987 | 2817 ft | 171 kts | 280° |
| 2026-05-07 19:34 | 28.52013 | 77.20691 | 2595 ft | 167 kts | 279° |
| 2026-05-07 19:35 | 28.52289 | 77.19410 | 2383 ft | 166 kts | 280° |
| 2026-05-07 19:35 | 28.52561 | 77.18157 | 2155 ft | 161 kts | 281° |
| 2026-05-07 19:35 | 28.52822 | 77.16948 | 1960 ft | 157 kts | 280° |
| 2026-05-07 19:35 | 28.53079 | 77.15761 | 1728 ft | 152 kts | 279° |
| 2026-05-07 19:36 | 28.53331 | 77.14593 | 1472 ft | 151 kts | 282° |
| 2026-05-07 19:36 | 28.53593 | 77.13447 | 1280 ft | 148 kts | 285° |
| 2026-05-07 19:36 | 28.53828 | 77.12327 | 1088 ft | 142 kts | 283° |
| 2026-05-07 19:36 | 28.54057 | 77.11252 | 897 ft | 139 kts | 284° |
| 2026-05-07 19:37 | 28.54290 | 77.10190 | 788 ft | 138 kts | 284° |
| 2026-05-07 19:37 | 28.54503 | 77.09203 | 766 ft | 116 kts | 284° |
| 2026-05-07 19:37 | 28.54671 | 77.08420 | 754 ft | 90 kts | 283° |
| 2026-05-07 19:37 | 28.54773 | 77.07942 | 747 ft | 28 kts | 283° |
| 2026-05-07 19:38 | 28.54805 | 77.07793 | 750 ft | 21 kts | 284° |
| 2026-05-07 19:38 | 28.53221 | 77.15104 | 1657 ft | 152 kts | 279° |
| 2026-05-07 19:38 | 28.54121 | 77.10966 | 845 ft | 138 kts | 284° |
| 2026-05-07 19:38 | 28.54321 | 77.10043 | 784 ft | 136 kts | 284° |
| 2026-05-07 19:39 | 28.54511 | 77.09166 | 766 ft | 114 kts | 284° |
| 2026-05-07 19:39 | 28.53619 | 77.13325 | 1272 ft | 148 kts | 285° |
| 2026-05-07 19:39 | 28.53686 | 77.13016 | 1193 ft | 146 kts | 284° |
| 2026-05-07 19:39 | 28.53903 | 77.11959 | 1036 ft | 140 kts | 283° |
| 2026-05-07 19:40 | 28.54124 | 77.10952 | 847 ft | 138 kts | 284° |
| 2026-05-07 19:40 | 28.54348 | 77.09917 | 779 ft | 134 kts | 284° |
| 2026-05-07 19:40 | 28.54550 | 77.08981 | 765 ft | 108 kts | 283° |
| 2026-05-07 19:40 | 28.54701 | 77.08277 | 752 ft | 85 kts | 283° |
| 2026-05-07 19:41 | 28.54779 | 77.07915 | 748 ft | 18 kts | 283° |
| 2026-05-07 19:41 | 28.54811 | 77.07765 | 749 ft | 21 kts | 284° |
| 2026-05-07 19:41 | 28.52513 | 77.18374 | 2199 ft | 162 kts | 281° |
| 2026-05-07 19:41 | 28.52769 | 77.17196 | 1996 ft | 158 kts | 279° |
| 2026-05-07 19:42 | 28.52998 | 77.16136 | 1797 ft | 154 kts | 279° |
| 2026-05-07 19:42 | 28.53222 | 77.15098 | 1599 ft | 152 kts | 279° |
| 2026-05-07 19:42 | 28.53462 | 77.14025 | 1356 ft | 150 kts | 284° |
| 2026-05-07 19:42 | 28.53691 | 77.12993 | 1187 ft | 146 kts | 284° |
| 2026-05-07 19:43 | 28.53895 | 77.12000 | 1043 ft | 140 kts | 283° |
| 2026-05-07 19:43 | 28.54108 | 77.11027 | 868 ft | 138 kts | 284° |
| 2026-05-07 19:43 | 28.54327 | 77.10014 | 783 ft | 136 kts | 284° |
| 2026-05-07 19:43 | 28.54531 | 77.09072 | 765 ft | 111 kts | 283° |
| 2026-05-07 19:44 | 28.54686 | 77.08349 | 753 ft | 87 kts | 283° |
| 2026-05-07 19:44 | 28.54774 | 77.07935 | 748 ft | 25 kts | 283° |
| 2026-05-07 19:44 | 28.54807 | 77.07785 | 748 ft | 21 kts | 284° |
| 2026-05-07 19:44 | 28.52476 | 77.18548 | 2230 ft | 163 kts | 281° |
| 2026-05-07 19:45 | 28.52745 | 77.17309 | 2024 ft | 158 kts | 279° |
| 2026-05-07 19:45 | 28.52976 | 77.16236 | 1815 ft | 154 kts | 279° |
| 2026-05-07 19:45 | 28.53203 | 77.15189 | 1621 ft | 152 kts | 279° |
| 2026-05-07 19:45 | 28.53442 | 77.14110 | 1368 ft | 150 kts | 284° |
| 2026-05-07 19:46 | 28.53676 | 77.13062 | 1204 ft | 147 kts | 284° |
| 2026-05-07 19:46 | 28.53883 | 77.12056 | 1052 ft | 140 kts | 283° |
| 2026-05-07 19:46 | 28.54097 | 77.11075 | 873 ft | 138 kts | 284° |
| 2026-05-07 19:46 | 28.54319 | 77.10055 | 784 ft | 136 kts | 284° |
| 2026-05-07 19:47 | 28.54529 | 77.09083 | 765 ft | 111 kts | 283° |